createdAt,value
2023-03-17T00:01:08.202Z,56.89
2023-03-17T00:05:24.181Z,56.87
2023-03-17T00:09:26.845Z,56.56
2023-03-17T00:13:32.077Z,56.79
2023-03-17T00:17:34.742Z,56.95
2023-03-17T00:21:38.901Z,56.99
2023-03-17T00:25:43.235Z,57.08
2023-03-17T00:29:46.977Z,56.74
2023-03-17T00:33:52.182Z,57.35
2023-03-17T00:37:58.396Z,56.80
2023-03-17T00:42:00.996Z,57.05
2023-03-17T00:46:10.987Z,57.11
2023-03-17T00:50:15.965Z,57.30
2023-03-17T00:54:21.571Z,56.95
2023-03-17T00:58:28.817Z,57.45
2023-03-17T01:02:32.287Z,57.68
2023-03-17T01:06:34.976Z,57.90
2023-03-17T01:10:39.224Z,57.83
2023-03-17T01:14:42.265Z,58.13
2023-03-17T01:18:45.638Z,57.94
2023-03-17T01:22:49.022Z,58.51
2023-03-17T01:26:53.024Z,59.10
2023-03-17T01:30:56.764Z,58.95
2023-03-17T01:34:59.810Z,59.08
2023-03-17T01:39:03.386Z,59.19
2023-03-17T01:43:19.719Z,59.08
2023-03-17T01:47:23.696Z,57.90
2023-03-17T01:51:33.004Z,58.01
2023-03-17T01:55:35.889Z,58.16
2023-03-17T01:59:45.451Z,58.36
2023-03-17T02:03:49.478Z,58.14
2023-03-17T02:07:52.910Z,58.55
2023-03-17T02:11:56.452Z,58.61
2023-03-17T02:16:00.437Z,58.21
2023-03-17T02:20:29.377Z,58.60
2023-03-17T02:24:38.576Z,58.54
2023-03-17T02:28:41.224Z,58.19
2023-03-17T02:32:44.190Z,58.56
2023-03-17T02:36:47.529Z,58.64
2023-03-17T02:40:51.944Z,58.88
2023-03-17T02:44:54.959Z,58.49
2023-03-17T02:48:57.818Z,58.73
2023-03-17T02:53:00.754Z,58.37
2023-03-17T02:57:05.225Z,58.42
2023-03-17T03:01:09.127Z,59.00
2023-03-17T03:05:11.786Z,59.23
2023-03-17T03:09:15.145Z,59.65
2023-03-17T03:13:19.112Z,60.06
2023-03-17T03:17:22.126Z,60.44
2023-03-17T03:21:25.028Z,59.79
2023-03-17T03:25:27.912Z,59.59
2023-03-17T03:29:32.039Z,60.14
2023-03-17T03:33:34.928Z,60.14
2023-03-17T03:37:37.601Z,60.08
2023-03-17T03:41:41.202Z,60.56
2023-03-17T03:45:45.219Z,60.43
2023-03-17T03:49:47.897Z,60.54
2023-03-17T03:53:50.877Z,60.79
2023-03-17T03:57:53.538Z,60.64
2023-03-17T04:01:57.639Z,60.72
2023-03-17T04:06:00.435Z,60.77
2023-03-17T04:10:03.229Z,60.57
2023-03-17T04:14:06.430Z,60.84
2023-03-17T04:18:10.579Z,61.08
2023-03-17T04:22:13.390Z,61.83
2023-03-17T04:26:17.798Z,62.77
2023-03-17T04:30:20.577Z,62.87
2023-03-17T04:34:24.815Z,63.60
2023-03-17T04:38:27.474Z,63.64
2023-03-17T04:42:30.475Z,63.22
2023-03-17T04:46:33.201Z,62.25
2023-03-17T04:50:37.152Z,63.00
2023-03-17T04:54:39.849Z,62.52
2023-03-17T04:58:42.602Z,62.09
2023-03-17T05:02:45.279Z,62.37
2023-03-17T05:06:49.285Z,62.97
2023-03-17T05:10:52.657Z,77.14
2023-03-17T05:14:55.467Z,70.38
2023-03-17T05:18:58.128Z,78.05
2023-03-17T05:23:02.130Z,61.18
2023-03-17T05:27:04.991Z,61.20
2023-03-17T05:31:10.846Z,61.06
2023-03-17T05:35:14.268Z,60.90
2023-03-17T05:39:18.234Z,60.95
2023-03-17T05:43:22.227Z,60.84
2023-03-17T05:47:24.939Z,60.59
2023-03-17T05:51:28.301Z,60.92
2023-03-17T05:55:32.368Z,60.68
2023-03-17T05:59:35.252Z,61.10
2023-03-17T06:03:39.077Z,61.24
2023-03-17T06:07:53.086Z,60.70
2023-03-17T06:11:59.353Z,60.83
2023-03-17T06:16:02.211Z,60.21
2023-03-17T06:20:05.439Z,59.67
2023-03-17T06:24:09.590Z,59.77
2023-03-17T06:28:13.611Z,60.56
2023-03-17T06:32:20.599Z,59.89
2023-03-17T06:36:23.637Z,59.55
2023-03-17T06:40:26.482Z,60.05
2023-03-17T06:44:30.465Z,59.05
2023-03-17T06:48:34.007Z,58.18
2023-03-17T06:52:37.090Z,57.52
2023-03-17T06:56:39.781Z,56.77
2023-03-17T07:00:45.481Z,56.50
2023-03-17T07:04:48.399Z,56.00
2023-03-17T07:08:52.386Z,54.86
2023-03-17T07:12:55.318Z,54.24
2023-03-17T07:17:00.321Z,53.20
2023-03-17T07:21:03.518Z,53.06
2023-03-17T07:25:07.879Z,52.39
2023-03-17T07:29:10.494Z,52.38
2023-03-17T07:33:14.683Z,51.43
2023-03-17T07:37:17.605Z,52.19
2023-03-17T07:41:20.430Z,52.56
2023-03-17T07:45:23.383Z,52.93
2023-03-17T07:49:40.522Z,53.33
2023-03-17T07:53:45.351Z,52.31
2023-03-17T07:57:48.075Z,52.25
2023-03-17T08:01:51.869Z,52.85
2023-03-17T08:05:56.053Z,51.32
2023-03-17T08:09:58.880Z,50.59
2023-03-17T08:14:02.628Z,49.70
2023-03-17T08:18:05.343Z,50.64
2023-03-17T08:22:09.868Z,50.82
2023-03-17T08:26:14.334Z,50.18
2023-03-17T08:30:17.527Z,49.94
2023-03-17T08:34:25.275Z,47.94
2023-03-17T08:38:29.300Z,48.29
2023-03-17T08:42:33.086Z,47.97
2023-03-17T08:46:36.240Z,47.68
2023-03-17T08:50:38.958Z,47.42
2023-03-17T08:54:43.185Z,47.11
2023-03-17T08:58:46.815Z,46.65
2023-03-17T09:02:50.135Z,48.06
2023-03-17T09:07:03.454Z,47.47
2023-03-17T09:11:10.666Z,46.54
2023-03-17T09:15:13.762Z,45.89
2023-03-17T09:19:17.830Z,45.77
2023-03-17T09:23:20.842Z,44.40
2023-03-17T09:27:25.251Z,43.47
2023-03-17T09:31:27.970Z,42.73
2023-03-17T09:35:31.587Z,41.61
2023-03-17T09:39:36.445Z,41.40
2023-03-17T09:43:50.170Z,41.37
2023-03-17T09:48:18.215Z,41.09
2023-03-17T09:52:28.313Z,42.28
2023-03-17T09:56:33.719Z,41.63
2023-03-17T10:00:38.216Z,40.50
2023-03-17T10:04:42.731Z,40.40
2023-03-17T10:08:52.450Z,41.65
2023-03-17T10:13:03.879Z,39.56
2023-03-17T10:17:16.374Z,39.91
2023-03-17T10:21:22.509Z,39.27
2023-03-17T10:25:29.818Z,39.83
2023-03-17T10:29:32.969Z,39.53
2023-03-17T10:33:37.017Z,39.08
2023-03-17T10:37:43.294Z,39.03
2023-03-17T10:41:56.963Z,39.06
2023-03-17T10:46:03.213Z,38.16
2023-03-17T10:50:18.939Z,38.76
2023-03-17T10:54:25.249Z,38.84
2023-03-17T10:58:38.445Z,38.43
2023-03-17T11:02:46.871Z,37.35
2023-03-17T11:06:52.422Z,37.81
2023-03-17T11:10:57.610Z,37.72
2023-03-17T11:15:02.197Z,37.68
2023-03-17T11:19:09.208Z,36.38
2023-03-17T11:23:27.311Z,36.06
2023-03-17T11:27:33.690Z,36.13
2023-03-17T11:31:46.803Z,34.64
2023-03-17T11:35:55.892Z,36.02
2023-03-17T11:40:13.214Z,34.90
2023-03-17T11:44:40.364Z,36.06
2023-03-17T11:48:51.103Z,35.05
2023-03-17T11:53:05.579Z,35.69
2023-03-17T11:57:16.257Z,33.83
2023-03-17T12:01:27.180Z,33.82
2023-03-17T12:05:31.625Z,33.47
2023-03-17T12:09:40.177Z,33.31
2023-03-17T12:13:47.641Z,33.21
2023-03-17T12:17:55.263Z,33.28
2023-03-17T12:22:02.223Z,32.61
2023-03-17T12:26:07.473Z,32.58
2023-03-17T12:30:23.076Z,32.21
2023-03-17T12:34:32.120Z,30.79
2023-03-17T12:38:39.525Z,32.56
2023-03-17T12:42:53.726Z,31.14
2023-03-17T12:47:24.996Z,31.69
2023-03-17T12:51:50.836Z,31.33
2023-03-17T12:55:57.132Z,31.74
2023-03-17T13:00:06.186Z,30.73
2023-03-17T13:04:19.192Z,30.73
2023-03-17T13:08:28.285Z,31.06
2023-03-17T13:13:08.906Z,32.22
2023-03-17T13:17:35.793Z,31.90
2023-03-17T13:21:40.134Z,31.51
2023-03-17T13:25:53.334Z,31.95
2023-03-17T13:29:56.561Z,32.99
2023-03-17T13:34:13.122Z,32.18
2023-03-17T13:38:42.140Z,32.01
2023-03-17T13:42:59.639Z,32.14
2023-03-17T13:47:29.552Z,30.52
2023-03-17T13:51:35.143Z,32.74
2023-03-17T13:55:43.177Z,33.44
2023-03-17T13:59:58.658Z,34.08
2023-03-17T14:04:08.817Z,34.36
2023-03-17T14:08:18.351Z,34.15
2023-03-17T14:12:28.333Z,32.57
2023-03-17T14:16:34.160Z,33.87
2023-03-17T14:20:37.005Z,33.28
2023-03-17T14:24:40.991Z,34.18
2023-03-17T14:28:45.159Z,35.27
2023-03-17T14:32:52.159Z,35.91
2023-03-17T14:36:54.838Z,36.03
2023-03-17T14:41:02.932Z,35.98
2023-03-17T14:45:09.589Z,35.86
2023-03-17T14:49:18.605Z,36.15
2023-03-17T14:53:24.073Z,36.44
2023-03-17T14:57:29.052Z,36.73
2023-03-17T15:01:38.726Z,35.01
2023-03-17T15:05:43.891Z,35.37
2023-03-17T15:09:46.604Z,35.10
2023-03-17T15:13:50.746Z,34.33
2023-03-17T15:17:57.904Z,34.43
2023-03-17T15:22:00.717Z,35.13
2023-03-17T15:26:09.392Z,34.87
2023-03-17T15:30:13.690Z,35.38
2023-03-17T15:34:18.093Z,35.47
2023-03-17T15:38:21.549Z,35.50
2023-03-17T15:42:27.012Z,35.89
2023-03-17T15:46:32.568Z,35.82
2023-03-17T15:50:36.698Z,35.93
2023-03-17T15:54:39.338Z,36.65
2023-03-17T15:58:42.070Z,36.45
2023-03-17T16:02:45.492Z,36.92
2023-03-17T16:06:49.845Z,37.03
2023-03-17T16:10:53.027Z,36.39
2023-03-17T16:14:55.960Z,37.20
2023-03-17T16:18:59.143Z,37.01
2023-03-17T16:23:08.486Z,36.89
2023-03-17T16:27:15.745Z,37.14
2023-03-17T16:31:24.892Z,36.23
2023-03-17T16:35:27.743Z,36.05
2023-03-17T16:39:32.155Z,34.89
2023-03-17T16:43:37.805Z,35.40
2023-03-17T16:47:40.338Z,36.81
2023-03-17T16:51:43.528Z,37.14
2023-03-17T16:55:47.997Z,38.00
2023-03-17T16:59:51.148Z,38.63
2023-03-17T17:03:54.291Z,39.70
2023-03-17T17:07:58.107Z,40.08
2023-03-17T17:12:02.076Z,40.88
2023-03-17T17:16:04.868Z,41.11
2023-03-17T17:20:13.446Z,41.82
2023-03-17T17:24:16.521Z,42.74
2023-03-17T17:28:23.103Z,42.67
2023-03-17T17:32:25.744Z,42.92
2023-03-17T17:36:28.878Z,43.10
2023-03-17T17:40:32.778Z,44.10
2023-03-17T17:44:37.249Z,46.82
2023-03-17T17:48:41.051Z,47.16
2023-03-17T17:52:43.760Z,47.25
2023-03-17T17:56:47.177Z,46.68
2023-03-17T18:00:52.588Z,47.39
2023-03-17T18:04:55.752Z,46.34
2023-03-17T18:08:59.299Z,46.41
2023-03-17T18:13:02.111Z,48.66
2023-03-17T18:17:07.054Z,50.73
2023-03-17T18:21:10.907Z,51.38
2023-03-17T18:25:15.396Z,51.50
2023-03-17T18:29:18.387Z,51.78
2023-03-17T18:33:22.566Z,51.98
2023-03-17T18:37:25.731Z,52.25
2023-03-17T18:41:29.210Z,52.09
2023-03-17T18:45:32.097Z,52.85
2023-03-17T18:49:36.232Z,52.53
2023-03-17T18:53:39.236Z,52.27
2023-03-17T18:57:44.753Z,52.63
2023-03-17T19:01:47.799Z,53.07
2023-03-17T19:05:51.897Z,53.73
2023-03-17T19:09:55.145Z,54.26
2023-03-17T19:13:58.345Z,54.07
2023-03-17T19:18:01.062Z,54.65
2023-03-17T19:22:06.487Z,54.90
2023-03-17T19:26:10.345Z,55.05
2023-03-17T19:30:14.553Z,56.02
2023-03-17T19:34:17.384Z,56.13
2023-03-17T19:38:21.586Z,56.92
2023-03-17T19:42:24.467Z,57.61
2023-03-17T19:46:27.325Z,57.77
2023-03-17T19:50:32.787Z,57.52
2023-03-17T19:54:42.037Z,58.77
2023-03-17T19:58:45.165Z,57.84
2023-03-17T20:02:48.072Z,57.93
2023-03-17T20:06:55.583Z,58.10
2023-03-17T20:10:59.675Z,58.36
2023-03-17T20:15:02.881Z,58.62
2023-03-17T20:19:06.002Z,58.73
2023-03-17T20:23:08.777Z,58.78
2023-03-17T20:27:15.257Z,59.63
2023-03-17T20:31:18.765Z,60.02
2023-03-17T20:35:21.480Z,59.98
2023-03-17T20:39:24.257Z,60.54
2023-03-17T20:43:28.389Z,61.05
2023-03-17T20:47:31.973Z,61.29
2023-03-17T20:51:35.933Z,61.76
2023-03-17T20:55:38.644Z,62.34
2023-03-17T20:59:43.865Z,62.52
2023-03-17T21:03:47.123Z,63.17
2023-03-17T21:07:50.170Z,62.70
2023-03-17T21:11:52.853Z,63.19
2023-03-17T21:15:57.064Z,63.16
2023-03-17T21:19:59.969Z,63.63
2023-03-17T21:24:03.068Z,63.23
2023-03-17T21:28:06.213Z,63.63
2023-03-17T21:32:10.926Z,64.92
2023-03-17T21:36:13.645Z,65.68
2023-03-17T21:40:16.955Z,67.32
2023-03-17T21:44:20.064Z,69.92
2023-03-17T21:48:24.044Z,69.77
2023-03-17T21:52:27.034Z,70.46
2023-03-17T21:56:29.872Z,70.37
2023-03-17T22:00:39.388Z,69.17
2023-03-17T22:04:48.922Z,68.69
2023-03-17T22:08:51.582Z,69.09
2023-03-17T22:12:54.328Z,68.43
2023-03-17T22:16:57.442Z,68.72
2023-03-17T22:21:01.737Z,68.93
2023-03-17T22:25:05.551Z,69.50
2023-03-17T22:29:08.197Z,69.76
2023-03-17T22:33:11.618Z,70.31
2023-03-17T22:37:15.618Z,70.21
2023-03-17T22:41:20.745Z,71.07
2023-03-17T22:45:23.502Z,71.39
2023-03-17T22:49:26.221Z,71.85
2023-03-17T22:53:31.547Z,72.40
2023-03-17T22:57:34.539Z,72.12
2023-03-17T23:01:37.385Z,71.56
2023-03-17T23:05:40.148Z,71.55
2023-03-17T23:09:45.288Z,71.06
2023-03-17T23:13:48.799Z,71.80
2023-03-17T23:17:54.055Z,72.19
2023-03-17T23:21:56.834Z,72.06
2023-03-17T23:26:00.852Z,72.36
2023-03-17T23:30:03.861Z,72.28
2023-03-17T23:34:07.637Z,72.53
2023-03-17T23:38:10.379Z,72.50
2023-03-17T23:42:14.444Z,73.26
2023-03-17T23:46:17.238Z,73.40
2023-03-17T23:50:20.904Z,73.69
2023-03-17T23:54:24.109Z,73.76
2023-03-17T23:58:28.501Z,73.98
